createdAt,value
2023-04-13T00:01:23.989Z,8.01
2023-04-13T00:03:50.861Z,7.68
2023-04-13T00:06:17.694Z,8.05
2023-04-13T00:08:44.338Z,8.44
2023-04-13T00:11:12.009Z,8.67
2023-04-13T00:13:39.059Z,8.66
2023-04-13T00:16:06.078Z,8.42
2023-04-13T00:18:33.037Z,8.07
2023-04-13T00:20:59.820Z,7.81
2023-04-13T00:23:26.452Z,7.92
2023-04-13T00:25:53.187Z,8.12
2023-04-13T00:28:19.846Z,8.10
2023-04-13T00:30:46.529Z,7.59
2023-04-13T00:33:13.206Z,7.60
2023-04-13T00:35:39.881Z,7.47
2023-04-13T00:38:06.590Z,7.89
2023-04-13T00:40:33.301Z,7.71
2023-04-13T00:43:00.236Z,7.69
2023-04-13T00:45:26.914Z,7.64
2023-04-13T00:47:53.702Z,7.66
2023-04-13T00:50:21.194Z,7.35
2023-04-13T00:52:49.198Z,7.55
2023-04-13T00:55:17.158Z,7.23
2023-04-13T00:57:45.529Z,7.29
2023-04-13T01:00:12.520Z,7.30
2023-04-13T01:02:39.289Z,7.25
2023-04-13T01:05:06.275Z,7.31
2023-04-13T01:07:55.900Z,7.42
2023-04-13T01:10:35.539Z,7.40
2023-04-13T01:13:09.882Z,7.57
2023-04-13T01:15:41.401Z,7.67
2023-04-13T01:18:13.179Z,7.61
2023-04-13T01:20:44.066Z,7.91
2023-04-13T01:23:40.348Z,8.07
2023-04-13T01:26:07.105Z,7.98
2023-04-13T01:28:36.907Z,8.16
2023-04-13T01:31:03.664Z,7.77
2023-04-13T01:33:30.823Z,7.86
2023-04-13T01:36:00.068Z,8.30
2023-04-13T01:38:26.676Z,8.33
2023-04-13T01:40:53.376Z,8.02
2023-04-13T01:43:21.056Z,7.26
2023-04-13T01:46:02.730Z,7.34
2023-04-13T01:48:41.982Z,7.60
2023-04-13T01:51:20.242Z,8.03
2023-04-13T01:53:52.321Z,8.66
2023-04-13T01:56:20.098Z,8.17
2023-04-13T01:58:50.061Z,8.32
2023-04-13T02:01:17.164Z,8.03
2023-04-13T02:03:44.069Z,7.34
2023-04-13T02:06:11.245Z,7.80
2023-04-13T02:08:38.255Z,7.74
2023-04-13T02:11:05.097Z,8.05
2023-04-13T02:13:31.791Z,7.62
2023-04-13T02:15:58.730Z,7.74
2023-04-13T02:18:25.570Z,7.88
2023-04-13T02:21:04.984Z,8.08
2023-04-13T02:23:31.810Z,7.61
2023-04-13T02:25:58.539Z,7.60
2023-04-13T02:28:25.215Z,7.42
2023-04-13T02:30:51.887Z,7.15
2023-04-13T02:33:18.522Z,7.13
2023-04-13T02:35:45.230Z,7.33
2023-04-13T02:38:12.028Z,7.52
2023-04-13T02:40:38.806Z,7.24
2023-04-13T02:43:05.693Z,7.22
2023-04-13T02:45:32.390Z,6.83
2023-04-13T02:47:59.150Z,6.60
2023-04-13T02:50:26.143Z,6.66
2023-04-13T02:52:52.846Z,6.73
2023-04-13T02:55:20.102Z,6.96
2023-04-13T02:57:46.972Z,7.28
2023-04-13T03:00:14.229Z,7.13
2023-04-13T03:02:41.100Z,7.30
2023-04-13T03:05:09.263Z,7.30
2023-04-13T03:07:36.456Z,6.97
2023-04-13T03:10:04.068Z,6.86
2023-04-13T03:12:33.537Z,6.71
2023-04-13T03:15:00.348Z,6.46
2023-04-13T03:17:27.343Z,6.74
2023-04-13T03:19:54.051Z,6.59
2023-04-13T03:22:20.800Z,6.85
2023-04-13T03:24:47.473Z,6.68
2023-04-13T03:27:14.185Z,6.82
2023-04-13T03:29:40.824Z,7.04
2023-04-13T03:32:07.459Z,7.46
2023-04-13T03:34:34.071Z,7.85
2023-04-13T03:37:00.794Z,7.63
2023-04-13T03:39:27.506Z,7.40
2023-04-13T03:41:54.155Z,7.43
2023-04-13T03:44:20.762Z,7.57
2023-04-13T03:46:47.445Z,7.43
2023-04-13T03:49:14.112Z,6.46
2023-04-13T03:51:40.743Z,7.27
2023-04-13T03:54:07.451Z,7.10
2023-04-13T03:56:34.134Z,6.87
2023-04-13T03:59:01.784Z,6.77
2023-04-13T04:01:28.380Z,6.50
2023-04-13T04:03:55.516Z,6.49
2023-04-13T04:06:23.192Z,7.15
2023-04-13T04:08:50.363Z,6.49
2023-04-13T04:11:17.681Z,6.83
2023-04-13T04:13:44.637Z,7.08
2023-04-13T04:16:11.518Z,6.95
2023-04-13T04:18:39.043Z,7.56
2023-04-13T04:21:06.488Z,6.88
2023-04-13T04:23:33.208Z,6.26
2023-04-13T04:26:00.445Z,6.37
2023-04-13T04:28:27.123Z,6.32
2023-04-13T04:30:53.812Z,6.21
2023-04-13T04:33:21.180Z,6.21
2023-04-13T04:35:48.296Z,6.34
2023-04-13T04:38:14.955Z,6.23
2023-04-13T04:40:41.657Z,6.39
2023-04-13T04:43:08.358Z,6.90
2023-04-13T04:45:35.040Z,6.95
2023-04-13T04:48:01.708Z,7.11
2023-04-13T04:50:28.510Z,7.10
2023-04-13T04:52:55.125Z,6.40
2023-04-13T04:55:21.781Z,6.42
2023-04-13T04:57:48.413Z,6.64
2023-04-13T05:00:16.086Z,6.70
2023-04-13T05:02:43.576Z,6.85
2023-04-13T05:05:10.627Z,6.62
2023-04-13T05:07:37.668Z,5.84
2023-04-13T05:10:06.491Z,6.40
2023-04-13T05:12:33.896Z,6.36
2023-04-13T05:15:01.568Z,5.96
2023-04-13T05:17:28.225Z,6.28
2023-04-13T05:19:54.828Z,6.40
2023-04-13T05:22:21.546Z,6.26
2023-04-13T05:24:48.382Z,6.19
2023-04-13T05:27:14.973Z,6.58
2023-04-13T05:29:42.099Z,6.42
2023-04-13T05:32:08.755Z,6.49
2023-04-13T05:34:35.413Z,6.29
2023-04-13T05:37:02.040Z,5.96
2023-04-13T05:39:28.721Z,5.85
2023-04-13T05:41:55.363Z,5.90
2023-04-13T05:44:21.977Z,6.28
2023-04-13T05:46:49.502Z,6.15
2023-04-13T05:49:16.409Z,6.05
2023-04-13T05:51:43.026Z,6.08
2023-04-13T05:54:12.465Z,6.18
2023-04-13T05:56:39.205Z,6.46
2023-04-13T05:59:06.061Z,6.76
2023-04-13T06:01:32.827Z,6.88
2023-04-13T06:03:59.665Z,6.34
2023-04-13T06:06:27.075Z,6.39
2023-04-13T06:08:53.784Z,6.40
2023-04-13T06:11:20.498Z,6.93
2023-04-13T06:13:50.155Z,7.23
2023-04-13T06:16:17.131Z,7.80
2023-04-13T06:18:43.810Z,7.86
2023-04-13T06:21:10.612Z,7.82
2023-04-13T06:23:37.290Z,8.05
2023-04-13T06:26:05.926Z,8.58
2023-04-13T06:28:32.900Z,8.52
2023-04-13T06:30:59.708Z,8.87
2023-04-13T06:33:26.413Z,8.99
2023-04-13T06:35:55.842Z,9.41
2023-04-13T06:38:22.454Z,9.79
2023-04-13T06:40:49.105Z,8.62
2023-04-13T06:43:26.383Z,9.34
2023-04-13T06:46:00.384Z,8.97
2023-04-13T06:48:27.300Z,9.11
2023-04-13T06:50:57.915Z,8.68
2023-04-13T06:53:24.737Z,8.21
2023-04-13T06:55:51.371Z,8.63
2023-04-13T06:58:18.336Z,8.83
2023-04-13T07:00:45.933Z,8.75
2023-04-13T07:03:12.783Z,8.32
2023-04-13T07:05:39.573Z,8.21
2023-04-13T07:08:06.275Z,7.75
2023-04-13T07:10:33.015Z,8.50
2023-04-13T07:12:59.646Z,8.54
2023-04-13T07:15:26.386Z,8.69
2023-04-13T07:17:53.095Z,7.94
2023-04-13T07:20:19.769Z,7.76
2023-04-13T07:22:46.400Z,7.87
2023-04-13T07:25:13.068Z,7.95
2023-04-13T07:27:39.704Z,8.12
2023-04-13T07:30:07.132Z,8.17
2023-04-13T07:32:33.782Z,8.64
2023-04-13T07:35:00.704Z,9.16
2023-04-13T07:37:27.961Z,10.14
2023-04-13T07:39:54.566Z,11.00
2023-04-13T07:42:21.228Z,11.76
2023-04-13T07:44:47.931Z,11.85
2023-04-13T07:47:14.574Z,11.94
2023-04-13T07:49:41.178Z,11.93
2023-04-13T07:52:07.925Z,11.25
2023-04-13T07:54:35.995Z,11.24
2023-04-13T07:57:02.808Z,11.39
2023-04-13T07:59:29.541Z,11.03
2023-04-13T08:01:56.311Z,11.93
2023-04-13T08:04:23.083Z,12.48
2023-04-13T08:06:49.751Z,12.78
2023-04-13T08:09:16.358Z,12.55
2023-04-13T08:11:43.256Z,12.05
2023-04-13T08:14:09.888Z,11.51
2023-04-13T08:16:36.656Z,10.84
2023-04-13T08:19:03.435Z,10.50
2023-04-13T08:21:30.041Z,10.82
2023-04-13T08:23:56.645Z,10.40
2023-04-13T08:26:23.334Z,9.48
2023-04-13T08:28:51.035Z,9.70
2023-04-13T08:31:17.653Z,9.59
2023-04-13T08:33:44.312Z,10.24
2023-04-13T08:36:11.117Z,9.79
2023-04-13T08:38:37.887Z,9.85
2023-04-13T08:41:04.670Z,9.28
2023-04-13T08:43:34.065Z,9.02
2023-04-13T08:46:00.804Z,9.02
2023-04-13T08:48:30.289Z,9.27
2023-04-13T08:51:01.239Z,9.77
2023-04-13T08:53:27.952Z,9.88
2023-04-13T08:55:55.502Z,11.02
2023-04-13T08:58:25.340Z,11.40
2023-04-13T09:00:52.518Z,10.82
2023-04-13T09:03:24.288Z,10.89
2023-04-13T09:05:59.002Z,10.50
2023-04-13T09:08:27.229Z,10.55
2023-04-13T09:10:55.316Z,10.96
2023-04-13T09:13:21.909Z,10.53
2023-04-13T09:15:48.557Z,10.41
2023-04-13T09:18:15.310Z,10.67
2023-04-13T09:20:41.981Z,10.74
2023-04-13T09:23:13.191Z,10.27
2023-04-13T09:25:40.129Z,9.93
2023-04-13T09:28:06.811Z,9.93
2023-04-13T09:30:33.549Z,9.52
2023-04-13T09:33:08.268Z,9.70
2023-04-13T09:35:36.189Z,9.54
2023-04-13T09:38:04.160Z,9.64
2023-04-13T09:40:31.267Z,9.30
2023-04-13T09:43:05.388Z,9.37
2023-04-13T09:45:37.740Z,9.80
2023-04-13T09:48:15.951Z,10.09
2023-04-13T09:50:42.653Z,9.84
2023-04-13T09:53:09.341Z,9.68
2023-04-13T09:55:37.670Z,9.24
2023-04-13T09:58:14.660Z,9.05
2023-04-13T10:00:43.913Z,8.48
2023-04-13T10:03:13.727Z,8.40
2023-04-13T10:05:55.193Z,8.02
2023-04-13T10:08:36.763Z,7.91
2023-04-13T10:11:10.901Z,8.15
2023-04-13T10:13:43.594Z,8.40
2023-04-13T10:16:40.457Z,7.87
2023-04-13T10:19:15.297Z,7.80
2023-04-13T10:21:48.483Z,7.50
2023-04-13T10:24:16.077Z,7.57
2023-04-13T10:26:43.157Z,7.71
2023-04-13T10:29:09.801Z,8.69
2023-04-13T10:31:41.166Z,8.79
2023-04-13T10:34:09.769Z,8.38
2023-04-13T10:36:43.981Z,8.63
2023-04-13T10:39:11.533Z,8.68
2023-04-13T10:41:38.342Z,8.39
2023-04-13T10:44:07.602Z,8.29
2023-04-13T10:46:36.874Z,8.65
2023-04-13T10:49:04.770Z,8.52
2023-04-13T10:51:45.484Z,8.63
2023-04-13T10:54:14.211Z,9.16
2023-04-13T10:56:41.279Z,8.70
2023-04-13T10:59:08.299Z,8.62
2023-04-13T11:01:35.078Z,8.17
2023-04-13T11:04:07.750Z,8.76
2023-04-13T11:06:37.898Z,9.24
2023-04-13T11:09:04.846Z,9.51
2023-04-13T11:11:31.758Z,9.76
2023-04-13T11:13:58.511Z,9.25
2023-04-13T11:16:25.651Z,9.13
2023-04-13T11:19:05.342Z,9.02
2023-04-13T11:21:32.144Z,9.04
2023-04-13T11:23:58.920Z,9.32
2023-04-13T11:26:33.405Z,9.86
2023-04-13T11:29:00.460Z,9.62
2023-04-13T11:31:41.125Z,9.92
2023-04-13T11:34:09.305Z,9.54
2023-04-13T11:36:36.292Z,9.75
2023-04-13T11:39:03.076Z,9.84
2023-04-13T11:41:29.743Z,9.98
2023-04-13T11:43:57.113Z,9.73
2023-04-13T11:46:23.986Z,10.03
2023-04-13T11:48:51.671Z,9.76
2023-04-13T11:51:20.176Z,9.50
2023-04-13T11:53:47.556Z,9.75
2023-04-13T11:56:14.213Z,10.07
2023-04-13T11:58:40.929Z,10.24
2023-04-13T12:01:13.792Z,10.62
2023-04-13T12:03:57.104Z,10.54
2023-04-13T12:06:29.559Z,10.65
2023-04-13T12:09:09.148Z,10.55
2023-04-13T12:11:48.609Z,10.06
2023-04-13T12:19:23.248Z,9.83
2023-04-13T12:21:52.873Z,9.75
2023-04-13T12:24:19.849Z,10.06
2023-04-13T12:29:16.070Z,10.49
2023-04-13T12:31:42.772Z,10.65
2023-04-13T12:34:09.412Z,10.69
2023-04-13T12:36:36.081Z,10.83
2023-04-13T12:39:03.830Z,10.87
2023-04-13T12:41:30.467Z,10.97
2023-04-13T12:43:57.384Z,10.79
2023-04-13T12:46:24.084Z,10.50
2023-04-13T12:48:51.392Z,10.51
2023-04-13T12:51:18.133Z,11.05
2023-04-13T12:53:44.829Z,11.25
2023-04-13T12:56:11.469Z,11.34
2023-04-13T12:58:38.061Z,11.13
2023-04-13T13:01:04.853Z,10.55
2023-04-13T13:03:31.517Z,11.09
2023-04-13T13:05:58.142Z,11.55
2023-04-13T13:08:24.772Z,11.62
2023-04-13T13:10:52.500Z,11.94
2023-04-13T13:13:19.184Z,11.44
2023-04-13T13:15:45.803Z,11.46
2023-04-13T13:18:13.033Z,11.76
2023-04-13T13:20:40.000Z,11.95
2023-04-13T13:23:10.823Z,11.42
2023-04-13T13:25:39.068Z,11.56
2023-04-13T13:28:14.194Z,10.98
2023-04-13T13:30:41.765Z,10.84
2023-04-13T13:33:08.494Z,11.29
2023-04-13T13:35:35.186Z,11.20
2023-04-13T13:38:02.213Z,11.07
2023-04-13T13:40:28.927Z,11.01
2023-04-13T13:42:55.601Z,11.21
2023-04-13T13:45:22.251Z,11.70
2023-04-13T13:47:53.697Z,12.05
2023-04-13T13:50:21.481Z,11.96
2023-04-13T13:53:01.552Z,12.42
2023-04-13T13:55:30.741Z,12.14
2023-04-13T13:57:57.382Z,12.38
2023-04-13T14:00:24.121Z,12.09
2023-04-13T14:02:50.895Z,11.62
2023-04-13T14:05:17.641Z,11.50
2023-04-13T14:07:45.389Z,11.81
2023-04-13T14:10:13.137Z,12.14
2023-04-13T14:12:45.679Z,12.03
2023-04-13T14:15:13.533Z,11.89
2023-04-13T14:17:40.288Z,11.64
2023-04-13T14:20:07.759Z,11.72
2023-04-13T14:22:34.774Z,11.50
2023-04-13T14:25:01.698Z,11.88
2023-04-13T14:27:28.349Z,11.34
2023-04-13T14:29:54.995Z,11.70
2023-04-13T14:32:21.675Z,11.55
2023-04-13T14:34:48.352Z,11.61
2023-04-13T14:37:17.428Z,11.74
2023-04-13T14:39:44.041Z,11.72
2023-04-13T14:42:11.124Z,11.88
2023-04-13T14:44:38.225Z,11.85
2023-04-13T14:47:07.574Z,12.64
2023-04-13T14:49:35.563Z,12.86
2023-04-13T14:52:02.639Z,12.78
2023-04-13T14:54:29.346Z,13.02
2023-04-13T14:56:55.996Z,13.22
2023-04-13T14:59:23.665Z,13.46
2023-04-13T15:01:50.462Z,13.39
2023-04-13T15:04:17.370Z,13.61
2023-04-13T15:06:44.496Z,13.19
2023-04-13T15:09:11.227Z,12.84
2023-04-13T15:11:37.956Z,12.66
2023-04-13T15:14:04.722Z,12.65
2023-04-13T15:16:31.419Z,12.79
2023-04-13T15:18:58.908Z,12.22
2023-04-13T15:21:25.764Z,11.94
2023-04-13T15:23:52.427Z,11.30
2023-04-13T15:26:20.927Z,11.56
2023-04-13T15:28:47.568Z,11.51
2023-04-13T15:31:14.146Z,12.13
2023-04-13T15:33:40.754Z,12.20
2023-04-13T15:36:07.824Z,11.29
2023-04-13T15:38:34.510Z,11.15
2023-04-13T15:41:01.158Z,11.51
2023-04-13T15:43:27.858Z,11.73
2023-04-13T15:45:54.479Z,11.97
2023-04-13T15:48:21.175Z,12.40
2023-04-13T15:50:47.882Z,12.09
2023-04-13T15:53:14.467Z,11.61
2023-04-13T15:55:41.074Z,12.32
2023-04-13T15:58:07.713Z,12.20
2023-04-13T16:00:34.340Z,11.85
2023-04-13T16:03:01.111Z,11.97
2023-04-13T16:05:29.440Z,12.31
2023-04-13T16:07:57.868Z,11.97
2023-04-13T16:10:24.469Z,12.02
2023-04-13T16:12:51.101Z,11.94
2023-04-13T16:15:17.837Z,11.95
2023-04-13T16:17:44.543Z,11.62
2023-04-13T16:20:11.806Z,12.00
2023-04-13T16:22:38.418Z,10.98
2023-04-13T16:25:05.549Z,11.34
2023-04-13T16:27:32.200Z,10.97
2023-04-13T16:29:58.922Z,11.42
2023-04-13T16:32:26.733Z,11.57
2023-04-13T16:34:53.340Z,12.35
2023-04-13T16:37:19.964Z,12.31
2023-04-13T16:39:46.575Z,12.39
2023-04-13T16:42:13.687Z,12.05
2023-04-13T16:44:40.352Z,12.35
2023-04-13T16:47:06.956Z,11.78
2023-04-13T16:49:33.593Z,12.13
2023-04-13T16:52:00.839Z,12.08
2023-04-13T16:54:27.445Z,10.67
2023-04-13T16:56:54.059Z,11.17
2023-04-13T16:59:20.716Z,11.43
2023-04-13T17:01:47.381Z,11.60
2023-04-13T17:04:14.131Z,11.56
2023-04-13T17:06:40.812Z,11.45
2023-04-13T17:09:07.986Z,10.96
2023-04-13T17:11:34.655Z,11.01
2023-04-13T17:14:01.261Z,10.52
2023-04-13T17:16:27.944Z,10.74
2023-04-13T17:18:58.154Z,10.43
2023-04-13T17:21:24.930Z,9.51
2023-04-13T17:23:51.562Z,8.95
2023-04-13T17:26:18.247Z,8.58
2023-04-13T17:28:44.866Z,8.12
2023-04-13T17:31:11.534Z,8.04
2023-04-13T17:33:38.281Z,7.77
2023-04-13T17:36:05.000Z,7.46
2023-04-13T17:38:31.749Z,7.35
2023-04-13T17:40:58.356Z,7.46
2023-04-13T17:43:25.030Z,7.65
2023-04-13T17:45:51.953Z,7.88
2023-04-13T17:48:18.825Z,8.09
2023-04-13T17:50:45.417Z,8.29
2023-04-13T17:53:12.044Z,8.57
2023-04-13T17:55:38.812Z,8.41
2023-04-13T17:58:05.623Z,8.64
2023-04-13T18:00:32.320Z,8.33
2023-04-13T18:03:00.169Z,8.77
2023-04-13T18:05:27.765Z,8.42
2023-04-13T18:07:54.444Z,8.75
2023-04-13T18:10:21.165Z,8.95
2023-04-13T18:12:49.289Z,9.59
2023-04-13T18:15:15.921Z,9.09
2023-04-13T18:17:42.572Z,9.28
2023-04-13T18:20:09.704Z,9.95
2023-04-13T18:22:36.292Z,10.23
2023-04-13T18:25:02.971Z,10.21
2023-04-13T18:27:29.645Z,10.58
2023-04-13T18:29:56.505Z,10.56
2023-04-13T18:32:23.860Z,9.53
2023-04-13T18:34:50.687Z,9.31
2023-04-13T18:37:17.305Z,8.78
2023-04-13T18:39:43.893Z,9.22
2023-04-13T18:42:10.559Z,9.81
2023-04-13T18:44:37.170Z,9.98
2023-04-13T18:47:03.907Z,10.04
2023-04-13T18:49:30.558Z,9.41
2023-04-13T18:51:57.172Z,8.62
2023-04-13T18:54:23.769Z,8.44
2023-04-13T18:56:50.407Z,8.36
2023-04-13T18:59:17.359Z,8.53
2023-04-13T19:01:45.822Z,9.07
2023-04-13T19:04:15.286Z,9.54
2023-04-13T19:06:41.916Z,9.39
2023-04-13T19:09:08.525Z,9.63
2023-04-13T19:11:50.138Z,8.93
2023-04-13T19:14:17.010Z,8.92
2023-04-13T19:16:43.757Z,8.94
2023-04-13T19:19:10.420Z,8.78
2023-04-13T19:21:37.049Z,8.88
2023-04-13T19:24:03.750Z,8.25
2023-04-13T19:26:30.385Z,9.08
2023-04-13T19:28:56.991Z,9.42
2023-04-13T19:31:23.664Z,9.25
2023-04-13T19:33:50.418Z,9.28
2023-04-13T19:36:17.234Z,9.32
2023-04-13T19:38:44.072Z,9.38
2023-04-13T19:41:10.773Z,8.49
2023-04-13T19:43:37.369Z,8.44
2023-04-13T19:46:04.159Z,8.19
2023-04-13T19:48:30.983Z,8.22
2023-04-13T19:50:57.605Z,8.39
2023-04-13T19:53:25.264Z,9.01
2023-04-13T19:55:51.953Z,9.11
2023-04-13T19:58:18.560Z,9.39
2023-04-13T20:00:48.037Z,9.21
2023-04-13T20:03:14.894Z,9.25
2023-04-13T20:05:41.649Z,9.27
2023-04-13T20:08:08.411Z,9.39
2023-04-13T20:10:35.057Z,9.40
2023-04-13T20:13:01.662Z,9.35
2023-04-13T20:15:28.375Z,9.28
2023-04-13T20:17:55.068Z,9.50
2023-04-13T20:20:23.880Z,9.37
2023-04-13T20:22:50.814Z,9.43
2023-04-13T20:25:17.506Z,8.98
2023-04-13T20:27:44.104Z,8.74
2023-04-13T20:30:11.080Z,8.71
2023-04-13T20:32:38.557Z,8.48
2023-04-13T20:35:05.714Z,8.56
2023-04-13T20:37:32.391Z,8.82
2023-04-13T20:39:59.001Z,8.50
2023-04-13T20:42:25.652Z,8.47
2023-04-13T20:44:56.011Z,8.45
2023-04-13T20:47:31.727Z,8.65
2023-04-13T20:49:58.416Z,8.34
2023-04-13T20:52:26.559Z,8.27
2023-04-13T20:54:54.224Z,7.56
2023-04-13T20:57:21.040Z,7.95
2023-04-13T20:59:49.609Z,8.01
2023-04-13T21:02:18.086Z,8.27
2023-04-13T21:04:45.585Z,8.34
2023-04-13T21:07:14.339Z,8.17
2023-04-13T21:09:41.353Z,8.46
2023-04-13T21:12:07.993Z,8.72
2023-04-13T21:14:34.621Z,8.84
2023-04-13T21:17:01.259Z,9.05
2023-04-13T21:19:27.876Z,9.06
2023-04-13T21:21:54.541Z,8.33
2023-04-13T21:24:21.335Z,7.83
2023-04-13T21:26:47.945Z,7.76
2023-04-13T21:29:14.640Z,8.10
2023-04-13T21:31:41.329Z,8.26
2023-04-13T21:34:08.005Z,8.64
2023-04-13T21:39:04.168Z,9.01
2023-04-13T21:41:30.848Z,9.32
2023-04-13T21:43:57.475Z,8.43
2023-04-13T21:46:24.174Z,8.13
2023-04-13T21:48:50.872Z,8.31
2023-04-13T21:51:17.522Z,8.30
2023-04-13T21:53:44.203Z,8.35
2023-04-13T21:56:10.816Z,8.69
2023-04-13T21:58:42.574Z,8.77
2023-04-13T22:01:10.706Z,8.46
2023-04-13T22:03:38.987Z,8.48
2023-04-13T22:06:10.575Z,7.27
2023-04-13T22:08:37.802Z,7.79
2023-04-13T22:11:04.712Z,7.99
2023-04-13T22:13:31.402Z,8.26
2023-04-13T22:15:58.308Z,8.30
2023-04-13T22:18:25.509Z,8.33
2023-04-13T22:20:52.272Z,8.27
2023-04-13T22:23:18.925Z,8.25
2023-04-13T22:25:53.846Z,7.89
2023-04-13T22:28:20.575Z,7.57
2023-04-13T22:30:50.188Z,7.05
2023-04-13T22:33:16.794Z,6.85
2023-04-13T22:35:43.453Z,6.04
2023-04-13T22:38:10.066Z,6.26
2023-04-13T22:40:39.430Z,6.93
2023-04-13T22:43:06.084Z,7.26
2023-04-13T22:45:32.738Z,7.46
2023-04-13T22:47:59.406Z,7.01
2023-04-13T22:50:26.223Z,7.67
2023-04-13T22:52:52.909Z,7.57
2023-04-13T22:55:20.039Z,7.64
2023-04-13T22:57:46.965Z,7.73
2023-04-13T23:00:13.910Z,7.40
2023-04-13T23:02:40.765Z,7.58
2023-04-13T23:05:08.111Z,7.47
2023-04-13T23:07:34.796Z,7.55
2023-04-13T23:10:01.485Z,8.01
2023-04-13T23:12:29.039Z,7.90
2023-04-13T23:14:55.722Z,8.01
2023-04-13T23:17:22.412Z,8.00
2023-04-13T23:19:49.047Z,8.12
2023-04-13T23:22:15.727Z,8.14
2023-04-13T23:24:42.451Z,8.07
2023-04-13T23:27:09.166Z,8.06
2023-04-13T23:29:35.886Z,7.88
2023-04-13T23:32:02.695Z,7.90
2023-04-13T23:34:29.360Z,7.26
2023-04-13T23:36:56.133Z,7.01
2023-04-13T23:39:22.923Z,6.61
2023-04-13T23:41:49.576Z,6.71
2023-04-13T23:44:16.342Z,7.10
2023-04-13T23:46:43.136Z,7.25
2023-04-13T23:49:09.919Z,7.49
2023-04-13T23:51:36.513Z,7.52
2023-04-13T23:54:03.180Z,7.64
2023-04-13T23:56:29.818Z,7.09
2023-04-13T23:58:56.418Z,6.99
